Time;durP1;ratioP1;P1;durP2;ratioP2;P2;SDS_P1;SDS_P2;PMS_P1;PMS_P2;Temp;Humidity;BMP_temperature;BMP_pressure;BME280_temperature;BME280_humidity;BME280_pressure;Samples;Min_cycle;Max_cycle;Signal;HPM_P1;HPM_P2
2021/07/14 00:00:48;;;;;;;11.85;5.55;;;14.70;96.20;;;;;;5072481;28;20036;-67
2021/07/14 00:03:13;;;;;;;8.68;5.80;;;14.70;96.40;;;;;;5069054;28;20035;-68
2021/07/14 00:05:40;;;;;;;6.20;4.80;;;14.70;96.40;;;;;;5068571;28;20538;-69
2021/07/14 00:08:08;;;;;;;9.45;5.72;;;14.70;96.50;;;;;;5046553;28;20032;-68
2021/07/14 00:10:34;;;;;;;8.23;6.05;;;14.70;96.60;;;;;;5061437;28;20016;-68
2021/07/14 00:13:09;;;;;;;6.25;5.00;;;14.70;96.70;;;;;;5069462;28;20055;-69
2021/07/14 00:23:35;;;;;;;7.80;5.78;;;14.90;97.00;;;;;;5077086;28;20023;-68
2021/07/14 00:26:00;;;;;;;5.20;4.47;;;14.90;96.90;;;;;;5082955;28;20056;-67
2021/07/14 00:28:26;;;;;;;11.43;4.72;;;15.00;96.90;;;;;;5069569;28;20069;-68
2021/07/14 00:30:56;;;;;;;6.22;5.03;;;15.00;96.90;;;;;;5069962;28;20063;-67
2021/07/14 00:33:22;;;;;;;6.38;4.78;;;15.00;96.90;;;;;;5079059;28;20017;-69
2021/07/14 00:35:48;;;;;;;5.22;4.50;;;15.10;96.90;;;;;;5050813;28;20040;-69
2021/07/14 00:38:14;;;;;;;5.90;3.83;;;15.10;96.90;;;;;;5071227;28;20078;-69
2021/07/14 00:40:40;;;;;;;6.40;4.03;;;15.10;96.90;;;;;;5074325;28;20464;-69
2021/07/14 00:43:06;;;;;;;5.22;3.60;;;15.10;96.90;;;;;;5073026;28;20032;-69
2021/07/14 00:45:33;;;;;;;4.80;3.67;;;15.10;96.90;;;;;;5071371;28;20020;-69
2021/07/14 00:48:00;;;;;;;5.22;4.20;;;15.10;96.90;;;;;;5075676;28;20025;-68
2021/07/14 00:50:26;;;;;;;6.60;4.25;;;15.20;96.90;;;;;;5075244;28;20025;-69
2021/07/14 00:52:52;;;;;;;5.85;4.00;;;15.20;96.90;;;;;;5077571;28;20088;-68
2021/07/14 00:55:17;;;;;;;6.50;4.28;;;15.20;96.80;;;;;;5071516;28;20024;-68
2021/07/14 00:57:43;;;;;;;4.22;3.63;;;15.20;96.80;;;;;;5055250;28;20192;-69
2021/07/14 01:00:11;;;;;;;6.25;4.00;;;15.20;96.90;;;;;;5072717;28;20039;-68
2021/07/14 01:02:37;;;;;;;5.28;3.75;;;15.20;96.90;;;;;;5073432;28;20039;-68
2021/07/14 01:05:44;;;;;;;5.15;3.47;;;15.30;96.90;;;;;;5082024;28;20127;-68
2021/07/14 01:09:07;;;;;;;5.75;3.60;;;15.30;96.90;;;;;;5009183;28;20044;-66
2021/07/14 01:11:35;;;;;;;4.15;3.72;;;15.30;96.90;;;;;;4990538;28;20073;-68
2021/07/14 01:14:23;;;;;;;3.35;3.05;;;15.30;96.80;;;;;;5058665;28;20040;-69
2021/07/14 01:17:01;;;;;;;3.28;2.97;;;15.30;96.80;;;;;;5071012;28;20074;-68
2021/07/14 01:19:45;;;;;;;4.38;3.00;;;15.30;96.80;;;;;;5074275;28;20376;-68
2021/07/14 01:22:39;;;;;;;5.78;3.15;;;15.20;96.70;;;;;;5072997;28;20464;-68
2021/07/14 01:25:08;;;;;;;6.90;3.53;;;15.20;96.80;;;;;;5071264;28;20028;-68
2021/07/14 01:27:36;;;;;;;4.30;2.95;;;15.10;96.70;;;;;;5073800;28;20028;-67
2021/07/14 01:30:07;;;;;;;5.85;3.13;;;15.10;96.70;;;;;;5072598;28;20032;-69
2021/07/14 01:32:35;;;;;;;9.02;2.70;;;15.10;96.80;;;;;;5072958;28;20067;-68
2021/07/14 01:35:08;;;;;;;6.35;3.13;;;15.10;96.80;;;;;;5074702;28;20098;-68
2021/07/14 01:37:33;;;;;;;;;;;15.10;96.70;;;;;;5073624;28;20032;-67
2021/07/14 01:40:02;;;;;;;4.50;3.05;;;15.00;96.60;;;;;;5082777;28;19961;-67
2021/07/14 01:42:30;;;;;;;6.00;3.30;;;15.00;96.70;;;;;;5072311;28;20051;-68
2021/07/14 01:44:57;;;;;;;4.63;3.42;;;15.10;96.80;;;;;;5077245;28;20029;-68
2021/07/14 01:47:24;;;;;;;4.80;3.20;;;15.10;96.80;;;;;;5084739;28;20024;-68
2021/07/14 01:49:52;;;;;;;5.38;3.60;;;15.10;96.80;;;;;;5060637;28;20035;-68
2021/07/14 01:52:19;;;;;;;12.63;4.28;;;15.10;96.80;;;;;;5076289;28;20503;-68
2021/07/14 01:54:49;;;;;;;5.88;4.68;;;15.10;96.80;;;;;;5071649;28;20020;-68
2021/07/14 01:57:16;;;;;;;5.47;3.95;;;15.10;96.80;;;;;;5077867;28;20480;-66
2021/07/14 01:59:43;;;;;;;8.35;5.28;;;15.10;96.80;;;;;;5053864;28;20428;-68
2021/07/14 02:02:10;;;;;;;5.47;4.88;;;15.10;96.80;;;;;;5086090;28;20109;-68
2021/07/14 02:04:39;;;;;;;8.13;5.28;;;15.10;96.80;;;;;;5078495;28;20024;-67
2021/07/14 02:07:16;;;;;;;9.05;4.72;;;15.10;96.80;;;;;;5067641;28;20029;-67
2021/07/14 02:09:45;;;;;;;8.23;5.35;;;15.10;96.80;;;;;;5068053;28;20103;-67
2021/07/14 02:12:20;;;;;;;6.25;5.13;;;15.10;96.70;;;;;;5072751;28;20441;-68
2021/07/14 02:15:02;;;;;;;8.77;4.97;;;15.10;96.80;;;;;;5070964;28;20116;-67
2021/07/14 02:17:32;;;;;;;;;;;15.00;96.70;;;;;;5079661;28;20479;-67
2021/07/14 02:20:11;;;;;;;7.50;4.53;;;15.00;96.60;;;;;;5075846;28;19999;-67
2021/07/14 02:22:37;;;;;;;9.32;5.72;;;14.90;96.60;;;;;;5078511;28;20106;-68
2021/07/14 02:25:04;;;;;;;8.15;5.55;;;14.90;96.60;;;;;;5070874;28;20044;-67
2021/07/14 02:27:30;;;;;;;10.00;4.93;;;14.80;96.50;;;;;;5075757;28;20017;-67
2021/07/14 02:29:56;;;;;;;7.95;5.05;;;14.80;96.60;;;;;;5071582;28;20100;-67
2021/07/14 02:32:22;;;;;;;10.57;4.80;;;14.70;96.80;;;;;;5071819;28;20021;-67
2021/07/14 02:34:51;;;;;;;7.82;5.00;;;14.70;96.80;;;;;;5052009;28;20706;-67
2021/07/14 02:37:39;;;;;;;9.85;5.53;;;14.70;96.80;;;;;;5070925;28;20020;-67
2021/07/14 02:40:07;;;;;;;6.82;4.82;;;14.70;96.90;;;;;;5069803;28;20024;-67
2021/07/14 02:42:35;;;;;;;9.25;5.30;;;14.70;96.80;;;;;;5067944;28;20030;-67
2021/07/14 02:45:05;;;;;;;11.38;5.57;;;14.60;96.80;;;;;;5070112;28;20028;-67
2021/07/14 02:47:41;;;;;;;59.47;6.47;;;14.70;96.90;;;;;;5087363;28;20054;-68
2021/07/14 02:50:17;;;;;;;13.40;5.45;;;14.60;96.90;;;;;;5071018;28;20104;-68
2021/07/14 02:52:48;;;;;;;19.83;5.63;;;14.60;96.80;;;;;;5079976;28;20099;-67
2021/07/14 02:55:18;;;;;;;9.82;5.55;;;14.60;96.90;;;;;;5072811;28;20495;-67
2021/07/14 02:57:45;;;;;;;7.95;5.15;;;14.60;97.00;;;;;;5069938;28;20117;-67
2021/07/14 03:00:12;;;;;;;10.50;5.80;;;14.60;96.90;;;;;;5071781;28;20496;-67
2021/07/14 03:02:40;;;;;;;6.25;4.55;;;14.60;96.90;;;;;;5071645;28;20032;-68
2021/07/14 03:05:06;;;;;;;7.93;5.30;;;14.60;97.00;;;;;;5067997;28;20218;-67
2021/07/14 03:07:33;;;;;;;8.27;5.15;;;14.60;97.00;;;;;;5065104;28;20535;-67
2021/07/14 03:09:59;;;;;;;7.07;5.80;;;14.60;97.00;;;;;;5073718;28;20062;-67
2021/07/14 03:12:26;;;;;;;8.80;5.90;;;14.60;97.00;;;;;;5071403;28;20848;-67
2021/07/14 03:14:58;;;;;;;14.20;7.10;;;14.60;97.00;;;;;;5072581;28;20365;-67
2021/07/14 03:17:28;;;;;;;8.90;6.50;;;14.60;97.10;;;;;;5076559;28;20655;-67
2021/07/14 03:19:54;;;;;;;8.50;6.32;;;14.60;97.00;;;;;;5073218;28;20033;-67
2021/07/14 03:22:21;;;;;;;9.60;7.30;;;14.60;97.10;;;;;;5052695;28;20033;-67
2021/07/14 03:24:47;;;;;;;13.05;6.72;;;14.50;97.10;;;;;;5053582;28;20075;-67
2021/07/14 03:27:14;;;;;;;11.02;6.55;;;14.50;97.10;;;;;;5068443;28;20066;-67
2021/07/14 03:29:40;;;;;;;10.02;7.05;;;14.50;97.10;;;;;;5073131;28;20032;-67
2021/07/14 03:32:07;;;;;;;11.20;6.43;;;14.50;97.20;;;;;;5081585;28;20025;-67
2021/07/14 03:34:33;;;;;;;10.25;6.10;;;14.50;97.10;;;;;;5069636;28;20094;-67
2021/07/14 03:37:04;;;;;;;5.68;5.07;;;14.50;97.10;;;;;;5068359;28;20075;-67
2021/07/14 03:39:31;;;;;;;8.45;5.15;;;14.50;97.20;;;;;;5052771;28;20039;-67
2021/07/14 03:41:58;;;;;;;8.70;5.72;;;14.50;97.20;;;;;;5069721;28;20020;-67
2021/07/14 03:44:24;;;;;;;10.95;4.90;;;14.50;97.20;;;;;;5070327;28;20393;-67
2021/07/14 03:46:52;;;;;;;5.93;4.47;;;14.50;97.30;;;;;;5068430;28;20029;-67
2021/07/14 03:49:18;;;;;;;7.50;4.65;;;14.50;97.20;;;;;;5072546;28;20036;-67
2021/07/14 03:51:46;;;;;;;4.90;4.43;;;14.50;97.20;;;;;;5077915;28;20109;-67
2021/07/14 03:54:12;;;;;;;6.22;4.68;;;14.50;97.20;;;;;;5079001;28;20024;-68
2021/07/14 03:56:39;;;;;;;11.18;4.72;;;14.50;97.20;;;;;;5069089;28;20093;-67
2021/07/14 03:59:05;;;;;;;7.57;4.32;;;14.50;97.20;;;;;;5070467;28;20396;-67
2021/07/14 04:01:32;;;;;;;6.70;4.60;;;14.40;97.20;;;;;;5070761;28;20028;-67
2021/07/14 04:03:58;;;;;;;7.15;4.75;;;14.50;97.20;;;;;;5069746;28;20445;-67
2021/07/14 04:06:26;;;;;;;7.28;4.78;;;14.50;97.30;;;;;;5084941;28;20050;-67
2021/07/14 04:09:16;;;;;;;6.13;4.45;;;14.50;97.30;;;;;;5062308;28;20017;-67
2021/07/14 04:11:43;;;;;;;5.45;4.68;;;14.50;97.40;;;;;;5044143;28;20464;-66
2021/07/14 04:14:08;;;;;;;8.18;4.93;;;14.50;97.40;;;;;;5075357;28;20032;-68
2021/07/14 04:16:34;;;;;;;7.03;4.57;;;14.50;97.30;;;;;;5057090;28;20120;-67
2021/07/14 04:19:00;;;;;;;5.57;4.50;;;14.50;97.30;;;;;;5076530;28;20036;-67
2021/07/14 04:21:26;;;;;;;5.35;4.70;;;14.50;97.30;;;;;;5076952;28;20116;-67
2021/07/14 04:23:52;;;;;;;6.32;4.45;;;14.40;97.20;;;;;;5078936;28;20499;-67
2021/07/14 04:26:18;;;;;;;6.38;4.38;;;14.40;97.20;;;;;;5092446;28;20024;-67
2021/07/14 04:28:44;;;;;;;5.63;4.45;;;14.40;97.20;;;;;;5083230;28;20028;-67
2021/07/14 04:31:09;;;;;;;6.35;4.30;;;14.30;97.40;;;;;;5078274;28;20028;-67
2021/07/14 04:33:35;;;;;;;6.70;4.55;;;14.30;97.20;;;;;;5069975;28;20021;-67
2021/07/14 04:36:01;;;;;;;8.07;4.45;;;14.30;97.20;;;;;;5075051;28;20491;-68
2021/07/14 04:38:26;;;;;;;5.03;4.53;;;14.30;97.20;;;;;;5076717;28;20044;-67
2021/07/14 04:40:52;;;;;;;8.25;5.07;;;14.30;97.20;;;;;;5076312;28;20021;-67
2021/07/14 04:43:18;;;;;;;9.43;4.68;;;14.20;97.30;;;;;;5079645;28;20073;-67
2021/07/14 04:45:43;;;;;;;6.22;4.45;;;14.30;97.30;;;;;;5070045;28;20400;-67
2021/07/14 04:48:09;;;;;;;6.93;4.72;;;14.20;97.40;;;;;;5077875;28;20041;-67
2021/07/14 04:50:35;;;;;;;9.20;5.15;;;14.30;97.50;;;;;;5077106;28;20027;-67
2021/07/14 04:53:01;;;;;;;7.65;5.55;;;14.30;97.60;;;;;;5078665;28;20028;-67
2021/07/14 04:55:26;;;;;;;8.73;5.10;;;14.30;97.40;;;;;;5055369;28;20025;-68
2021/07/14 04:57:52;;;;;;;7.68;5.70;;;14.30;97.40;;;;;;5076130;28;20032;-67
2021/07/14 05:00:17;;;;;;;7.18;5.30;;;14.30;97.40;;;;;;5102334;22;20042;-68
2021/07/14 05:02:46;;;;;;;6.22;4.85;;;14.30;97.40;;;;;;5077724;28;20020;-68
2021/07/14 05:05:16;;;;;;;6.50;5.35;;;14.30;97.50;;;;;;5095351;28;20024;-69
2021/07/14 05:07:42;;;;;;;5.95;5.03;;;14.30;97.50;;;;;;5096695;28;20027;-68
2021/07/14 05:10:09;;;;;;;6.75;5.28;;;14.30;97.40;;;;;;5096876;28;20020;-68
2021/07/14 05:12:36;;;;;;;6.70;4.90;;;14.30;97.40;;;;;;5096586;28;20027;-67
2021/07/14 05:15:02;;;;;;;7.40;4.70;;;14.30;97.40;;;;;;5094647;28;20090;-69
2021/07/14 05:17:27;;;;;;;7.82;4.85;;;14.30;97.50;;;;;;5077108;28;20127;-71
2021/07/14 05:19:53;;;;;;;7.65;4.93;;;14.40;97.60;;;;;;5095084;28;20035;-69
2021/07/14 05:22:21;;;;;;;7.40;5.40;;;14.40;97.60;;;;;;5095710;28;20066;-68
2021/07/14 05:24:47;;;;;;;6.10;4.78;;;14.40;97.60;;;;;;5092121;28;20093;-70
2021/07/14 05:27:12;;;;;;;6.22;4.50;;;14.50;97.60;;;;;;5073468;28;20028;-73
2021/07/14 05:29:38;;;;;;;8.45;5.05;;;14.50;97.60;;;;;;5091859;28;20095;-69
2021/07/14 05:32:05;;;;;;;8.43;4.50;;;14.50;97.60;;;;;;5092335;28;20551;-68
2021/07/14 05:34:31;;;;;;;6.45;4.43;;;14.60;97.60;;;;;;5091514;28;20024;-69
2021/07/14 05:36:56;;;;;;;5.13;3.60;;;14.60;97.60;;;;;;5092731;28;20016;-68
2021/07/14 05:39:22;;;;;;;3.92;3.53;;;14.60;97.50;;;;;;5093400;28;20099;-68
2021/07/14 05:41:48;;;;;;;8.30;6.40;;;14.60;97.50;;;;;;5093124;28;20027;-68
2021/07/14 05:44:14;;;;;;;4.03;3.63;;;14.60;97.50;;;;;;5092032;28;20062;-72
2021/07/14 05:46:39;;;;;;;5.68;3.85;;;14.60;97.50;;;;;;5091563;28;20032;-70
2021/07/14 05:49:06;;;;;;;7.70;3.33;;;14.70;97.50;;;;;;5073042;28;20061;-68
2021/07/14 05:51:32;;;;;;;6.90;3.90;;;14.70;97.50;;;;;;5092817;28;20016;-72
2021/07/14 05:53:59;;;;;;;3.95;3.60;;;14.70;97.40;;;;;;5091779;28;20024;-69
2021/07/14 05:56:24;;;;;;;6.00;3.25;;;14.70;97.50;;;;;;5089923;28;20050;-68
2021/07/14 05:58:50;;;;;;;7.70;3.72;;;14.70;97.50;;;;;;5073646;28;20036;-68
2021/07/14 06:01:16;;;;;;;5.30;3.80;;;14.70;97.50;;;;;;5091668;28;20027;-71
2021/07/14 06:03:41;;;;;;;3.50;3.20;;;14.70;97.40;;;;;;5092655;28;20464;-67
2021/07/14 06:06:07;;;;;;;5.05;3.20;;;14.80;97.50;;;;;;5090389;28;20027;-68
2021/07/14 06:08:33;;;;;;;5.78;3.40;;;14.80;97.40;;;;;;5091197;28;20032;-68
2021/07/14 06:10:59;;;;;;;7.88;5.10;;;14.80;97.40;;;;;;5091114;28;20026;-68
2021/07/14 06:13:24;;;;;;;8.18;3.72;;;14.80;97.40;;;;;;5091747;28;20074;-68
2021/07/14 06:15:50;;;;;;;4.90;3.38;;;14.80;97.30;;;;;;5090819;28;20107;-71
2021/07/14 06:18:15;;;;;;;6.32;3.85;;;14.80;97.30;;;;;;5086235;28;20112;-67
2021/07/14 06:20:41;;;;;;;5.05;3.72;;;14.70;97.30;;;;;;5092097;28;20020;-67
2021/07/14 06:23:07;;;;;;;5.60;3.90;;;14.70;97.20;;;;;;5092244;28;20039;-67
2021/07/14 06:25:33;;;;;;;5.13;4.20;;;14.70;97.20;;;;;;5091362;28;20051;-68
2021/07/14 06:28:00;;;;;;;4.32;3.92;;;14.70;97.20;;;;;;5064725;28;20055;-70
2021/07/14 06:30:26;;;;;;;5.00;4.10;;;14.70;97.20;;;;;;5091894;28;20016;-68
2021/07/14 06:32:52;;;;;;;6.68;4.45;;;14.70;97.20;;;;;;5074052;28;20096;-68
2021/07/14 06:35:18;;;;;;;7.25;5.68;;;14.70;97.30;;;;;;5089862;28;20130;-68
2021/07/14 06:37:45;;;;;;;6.45;4.70;;;14.70;97.50;;;;;;5091590;28;20024;-68
2021/07/14 06:40:11;;;;;;;8.02;4.40;;;14.70;97.30;;;;;;5091690;28;20036;-70
2021/07/14 06:42:38;;;;;;;7.82;4.78;;;14.70;97.20;;;;;;5092257;28;20472;-68
2021/07/14 06:45:05;;;;;;;7.85;4.68;;;14.70;97.20;;;;;;5089823;28;20031;-68
2021/07/14 06:47:31;;;;;;;9.18;4.38;;;14.70;97.20;;;;;;5091611;28;20154;-69
2021/07/14 06:49:57;;;;;;;5.20;4.40;;;14.70;97.10;;;;;;5091221;28;20099;-71
2021/07/14 06:52:23;;;;;;;5.43;4.47;;;14.70;97.20;;;;;;5091442;28;20027;-67
2021/07/14 06:54:49;;;;;;;6.10;4.28;;;14.80;97.40;;;;;;5090180;28;20103;-66
2021/07/14 06:57:15;;;;;;;6.35;4.88;;;14.80;97.40;;;;;;5091204;28;20061;-72
2021/07/14 06:59:40;;;;;;;6.18;4.70;;;14.80;97.40;;;;;;5091082;28;20036;-67
2021/07/14 07:02:06;;;;;;;7.20;4.97;;;14.90;97.40;;;;;;5090772;28;20064;-68
2021/07/14 07:04:32;;;;;;;9.02;4.63;;;14.80;97.30;;;;;;5088717;28;20020;-67
2021/07/14 07:06:59;;;;;;;4.70;4.30;;;14.80;97.40;;;;;;5090897;28;20032;-68
2021/07/14 07:09:25;;;;;;;14.23;4.40;;;14.90;97.40;;;;;;5091207;28;20028;-67
2021/07/14 07:11:51;;;;;;;6.78;4.47;;;14.90;97.40;;;;;;5072900;28;20028;-67
2021/07/14 07:14:17;;;;;;;5.13;4.63;;;14.90;97.40;;;;;;5091454;28;20028;-67
2021/07/14 07:16:42;;;;;;;5.93;4.20;;;14.90;97.50;;;;;;5089462;28;20419;-68
2021/07/14 07:19:08;;;;;;;8.40;4.35;;;14.90;97.50;;;;;;5088040;28;20020;-71
2021/07/14 07:21:33;;;;;;;5.53;4.05;;;14.90;97.50;;;;;;5090528;28;20051;-68
2021/07/14 07:23:59;;;;;;;4.57;4.15;;;15.00;97.50;;;;;;5091737;28;20024;-67
2021/07/14 07:26:26;;;;;;;4.72;3.72;;;15.00;97.60;;;;;;5090349;28;20031;-68
2021/07/14 07:28:58;;;;;;;7.53;3.88;;;15.00;97.40;;;;;;5073304;28;20027;-67
2021/07/14 07:31:24;;;;;;;5.18;3.90;;;15.00;97.40;;;;;;5071223;28;20483;-67
2021/07/14 07:33:50;;;;;;;5.70;4.20;;;15.00;97.40;;;;;;5073328;28;20059;-68
2021/07/14 07:36:16;;;;;;;6.70;4.47;;;15.00;97.50;;;;;;5089833;28;20059;-67
2021/07/14 07:38:41;;;;;;;6.43;3.58;;;15.10;97.50;;;;;;5091143;28;20032;-68
2021/07/14 07:41:08;;;;;;;6.03;4.28;;;15.10;97.50;;;;;;5091368;28;20130;-67
2021/07/14 07:43:34;;;;;;;4.88;4.38;;;15.10;97.50;;;;;;5091280;28;20023;-69
2021/07/14 07:45:59;;;;;;;4.28;3.63;;;15.10;97.50;;;;;;5089488;28;20365;-68
2021/07/14 07:48:26;;;;;;;6.25;3.90;;;15.10;97.50;;;;;;5090697;28;20024;-68
2021/07/14 07:50:52;;;;;;;5.72;4.40;;;15.10;97.40;;;;;;5091250;28;20024;-68
2021/07/14 07:53:19;;;;;;;5.97;4.50;;;15.10;97.30;;;;;;5073029;28;22501;-68
2021/07/14 07:55:46;;;;;;;5.53;4.57;;;15.10;97.30;;;;;;5089978;28;20034;-72
2021/07/14 07:58:11;;;;;;;7.35;4.40;;;15.10;97.30;;;;;;5091288;28;20024;-68
2021/07/14 08:00:37;;;;;;;6.20;4.53;;;15.10;97.20;;;;;;5090739;28;20032;-69
2021/07/14 08:03:03;;;;;;;5.90;4.75;;;15.00;97.20;;;;;;5091277;28;20032;-69
2021/07/14 08:05:29;;;;;;;5.57;4.90;;;15.00;97.20;;;;;;5089273;28;20108;-72
2021/07/14 08:07:55;;;;;;;7.60;4.57;;;15.00;97.20;;;;;;5089941;28;20031;-67
2021/07/14 08:10:21;;;;;;;6.30;4.93;;;15.00;97.20;;;;;;5090691;28;20027;-68
2021/07/14 08:12:46;;;;;;;6.93;4.90;;;14.90;97.20;;;;;;5090896;28;20024;-68
2021/07/14 08:15:12;;;;;;;9.23;4.93;;;14.90;97.20;;;;;;5090097;28;20498;-68
2021/07/14 08:17:39;;;;;;;9.50;5.25;;;14.90;97.30;;;;;;5091003;28;20032;-67
2021/07/14 08:20:07;;;;;;;6.35;5.53;;;14.90;97.50;;;;;;5089386;28;20488;-68
2021/07/14 08:22:33;;;;;;;5.97;5.15;;;14.90;97.40;;;;;;5090782;28;20067;-68
2021/07/14 08:24:58;;;;;;;8.25;5.50;;;14.90;97.40;;;;;;5090055;28;20504;-67
2021/07/14 08:27:25;;;;;;;8.32;5.20;;;14.90;97.40;;;;;;5088944;28;20027;-69
2021/07/14 08:29:59;;;;;;;6.55;5.18;;;14.90;97.40;;;;;;5089424;28;20054;-68
2021/07/14 08:32:29;;;;;;;5.85;5.20;;;14.90;97.50;;;;;;5090984;28;20024;-67
2021/07/14 08:34:56;;;;;;;7.43;6.18;;;15.00;97.50;;;;;;5089676;28;20043;-70
2021/07/14 08:37:22;;;;;;;5.93;5.15;;;14.90;97.40;;;;;;5090841;28;20085;-72
2021/07/14 08:39:54;;;;;;;5.82;5.20;;;14.90;97.40;;;;;;5089586;28;20028;-67
2021/07/14 08:42:20;;;;;;;5.72;4.93;;;14.90;97.40;;;;;;5090812;28;20559;-68
2021/07/14 08:44:47;;;;;;;6.25;5.25;;;14.90;97.40;;;;;;5089052;28;20055;-69
2021/07/14 08:47:14;;;;;;;6.82;5.40;;;14.90;97.40;;;;;;5090833;28;20028;-68
2021/07/14 08:49:42;;;;;;;7.45;5.55;;;14.90;97.50;;;;;;5072392;28;20070;-71
2021/07/14 08:52:08;;;;;;;5.82;5.05;;;14.90;97.50;;;;;;5090777;28;20055;-69
2021/07/14 08:54:36;;;;;;;8.40;5.40;;;14.90;97.40;;;;;;5089138;28;20055;-73
2021/07/14 08:57:03;;;;;;;8.88;5.78;;;14.90;97.50;;;;;;5090460;28;20574;-67
2021/07/14 08:59:28;;;;;;;7.50;5.20;;;14.90;97.50;;;;;;5092295;28;20035;-70
2021/07/14 09:01:54;;;;;;;7.75;5.47;;;15.00;97.50;;;;;;5094156;28;20038;-67
2021/07/14 09:04:19;;;;;;;7.15;5.68;;;15.00;97.50;;;;;;5094257;28;20028;-67
2021/07/14 09:06:45;;;;;;;8.13;5.70;;;15.10;97.50;;;;;;5092463;28;20548;-67
2021/07/14 09:09:11;;;;;;;6.70;5.45;;;15.10;97.50;;;;;;5075201;28;20020;-69
2021/07/14 09:11:57;;;;;;;6.57;5.97;;;15.10;97.50;;;;;;5093829;28;20019;-68
2021/07/14 09:14:34;;;;;;;7.82;6.15;;;15.20;97.60;;;;;;5093672;28;20472;-71
2021/07/14 09:17:22;;;;;;;7.55;6.30;;;15.20;97.60;;;;;;5093764;28;20062;-68
2021/07/14 09:19:49;;;;;;;9.00;6.38;;;15.30;97.50;;;;;;5094280;28;20023;-68
2021/07/14 09:22:33;;;;;;;7.50;6.40;;;15.30;97.50;;;;;;5094353;28;20103;-68
2021/07/14 09:24:59;;;;;;;6.43;5.13;;;15.40;97.60;;;;;;5092121;28;20020;-68
2021/07/14 09:27:28;;;;;;;6.57;5.30;;;15.40;97.40;;;;;;5093942;28;20712;-68
2021/07/14 09:30:11;;;;;;;8.05;5.18;;;15.40;97.30;;;;;;5093607;28;20072;-68
2021/07/14 09:33:04;;;;;;;7.47;5.53;;;15.50;97.40;;;;;;5093932;28;20324;-68
2021/07/14 09:35:32;;;;;;;4.70;4.13;;;15.50;97.50;;;;;;5088403;28;20432;-68
2021/07/14 09:38:00;;;;;;;8.57;5.30;;;15.60;97.30;;;;;;5093768;28;20089;-69
2021/07/14 09:40:26;;;;;;;5.35;4.43;;;15.70;97.30;;;;;;5093570;28;20024;-68
2021/07/14 09:42:57;;;;;;;4.65;4.25;;;15.80;97.20;;;;;;5093807;28;20118;-69
2021/07/14 09:45:39;;;;;;;4.72;4.25;;;15.80;97.30;;;;;;5091609;28;20103;-69
2021/07/14 09:48:06;;;;;;;5.20;4.70;;;15.90;97.30;;;;;;5092829;28;20025;-69
2021/07/14 09:50:44;;;;;;;4.85;4.32;;;15.90;97.20;;;;;;5093533;28;20123;-70
2021/07/14 09:53:12;;;;;;;6.25;4.07;;;15.80;97.00;;;;;;5093831;28;20388;-73
2021/07/14 09:55:40;;;;;;;4.13;3.78;;;15.90;97.00;;;;;;5074096;28;20024;-67
2021/07/14 09:58:17;;;;;;;3.88;3.58;;;16.10;97.00;;;;;;5093479;28;20165;-67
2021/07/14 10:00:59;;;;;;;3.95;3.55;;;16.20;97.10;;;;;;5093171;28;20461;-67
2021/07/14 10:03:31;;;;;;;4.30;3.60;;;16.30;97.00;;;;;;5093308;28;20048;-67
2021/07/14 10:06:09;;;;;;;5.05;3.50;;;16.50;96.90;;;;;;5090796;28;20084;-68
2021/07/14 10:08:40;;;;;;;5.45;3.90;;;16.60;96.80;;;;;;5092799;28;20086;-67
2021/07/14 10:11:15;;;;;;;4.75;3.50;;;16.60;96.70;;;;;;5092055;28;20107;-67
2021/07/14 10:13:51;;;;;;;3.38;3.08;;;16.70;96.60;;;;;;5093031;28;20024;-69
2021/07/14 10:16:18;;;;;;;3.22;2.75;;;16.80;96.50;;;;;;5090750;28;20016;-68
2021/07/14 10:19:02;;;;;;;4.80;3.05;;;16.90;96.60;;;;;;5091515;28;20054;-68
2021/07/14 10:21:29;;;;;;;3.28;2.83;;;17.00;96.60;;;;;;5092075;28;20415;-68
2021/07/14 10:23:56;;;;;;;3.13;2.38;;;17.10;96.40;;;;;;5092829;28;20048;-70
2021/07/14 10:26:22;;;;;;;2.30;2.10;;;17.20;96.30;;;;;;5091837;28;20479;-69
2021/07/14 10:28:51;;;;;;;2.45;2.22;;;17.30;96.10;;;;;;5074596;28;20035;-71
2021/07/14 10:31:22;;;;;;;2.80;2.40;;;17.20;95.90;;;;;;5092598;28;20524;-73
2021/07/14 10:33:52;;;;;;;2.60;2.40;;;17.20;95.70;;;;;;5092817;28;20024;-69
2021/07/14 10:36:24;;;;;;;2.80;2.40;;;17.20;95.80;;;;;;5091602;28;20464;-68
2021/07/14 10:38:52;;;;;;;2.90;2.35;;;17.30;95.80;;;;;;5091898;28;20483;-68
2021/07/14 10:41:18;;;;;;;2.60;2.30;;;17.30;95.70;;;;;;5092443;28;20510;-69
2021/07/14 10:43:47;;;;;;;2.40;2.20;;;17.30;95.70;;;;;;5092791;28;20089;-69
2021/07/14 10:46:14;;;;;;;1.90;1.80;;;17.30;95.60;;;;;;5090508;28;20081;-69
2021/07/14 10:48:41;;;;;;;2.45;2.20;;;17.30;95.30;;;;;;5092511;28;20024;-69
2021/07/14 10:51:07;;;;;;;2.75;1.65;;;17.40;95.30;;;;;;5092396;28;20663;-68
2021/07/14 10:53:34;;;;;;;2.08;1.48;;;17.40;95.40;;;;;;5092323;28;20028;-68
2021/07/14 10:56:01;;;;;;;3.00;1.60;;;17.40;95.10;;;;;;5089494;28;20030;-69
2021/07/14 10:58:29;;;;;;;1.40;1.30;;;17.40;94.80;;;;;;5091991;28;20384;-69
2021/07/14 11:00:57;;;;;;;1.95;1.67;;;17.30;94.50;;;;;;5103355;22;20051;-68
2021/07/14 11:03:31;;;;;;;1.52;1.40;;;17.30;94.50;;;;;;5091269;28;20081;-67
2021/07/14 11:05:57;;;;;;;3.45;1.35;;;17.30;94.50;;;;;;5090675;28;20066;-68
2021/07/14 11:08:42;;;;;;;2.15;1.65;;;17.30;94.60;;;;;;5079511;28;20032;-67
2021/07/14 11:11:08;;;;;;;1.50;1.40;;;17.30;94.30;;;;;;5066661;28;20023;-68
2021/07/14 11:13:35;;;;;;;3.15;1.42;;;17.40;94.30;;;;;;5091284;28;20440;-68
2021/07/14 11:16:19;;;;;;;1.60;1.50;;;17.40;94.20;;;;;;5090494;28;20027;-68
2021/07/14 11:18:45;;;;;;;3.97;1.50;;;17.50;94.10;;;;;;5074034;28;20383;-68
2021/07/14 11:21:42;;;;;;;1.45;1.35;;;17.60;94.10;;;;;;5049607;28;20116;-68
2021/07/14 11:24:08;;;;;;;1.50;1.40;;;17.70;94.00;;;;;;5070241;28;20024;-71
2021/07/14 11:26:34;;;;;;;1.50;1.40;;;17.80;94.00;;;;;;5069146;28;20515;-71
2021/07/14 11:29:18;;;;;;;1.15;1.15;;;17.90;93.70;;;;;;5053290;28;20128;-67
2021/07/14 11:31:43;;;;;;;1.45;1.30;;;17.90;93.20;;;;;;5076693;28;20097;-68
2021/07/14 11:34:29;;;;;;;1.25;1.20;;;17.90;93.30;;;;;;5072879;28;20055;-70
2021/07/14 11:36:55;;;;;;;1.23;1.13;;;18.00;93.20;;;;;;5069749;28;20074;-68
2021/07/14 11:39:29;;;;;;;2.03;1.48;;;18.00;93.30;;;;;;5053998;28;20020;-70
2021/07/14 11:42:17;;;;;;;1.50;1.40;;;18.10;93.30;;;;;;5084994;28;20020;-68
2021/07/14 11:44:53;;;;;;;1.38;1.15;;;18.10;93.10;;;;;;5082817;28;20032;-68
2021/07/14 11:47:35;;;;;;;1.60;1.50;;;18.10;93.10;;;;;;5060632;28;20028;-69
2021/07/14 11:50:05;;;;;;;1.52;1.38;;;18.20;93.00;;;;;;5070991;28;20031;-69
2021/07/14 11:52:47;;;;;;;1.33;1.23;;;18.20;93.00;;;;;;5052806;28;20116;-68
2021/07/14 11:55:25;;;;;;;1.48;1.38;;;18.30;92.90;;;;;;5069545;28;20023;-66
2021/07/14 11:57:51;;;;;;;3.55;1.42;;;18.50;92.70;;;;;;5070018;28;20055;-68
2021/07/14 12:00:18;;;;;;;1.35;1.17;;;18.60;92.40;;;;;;5071348;28;20033;-68
2021/07/14 12:02:59;;;;;;;2.15;1.10;;;18.70;92.20;;;;;;5090713;28;20032;-70
2021/07/14 12:05:37;;;;;;;1.13;1.02;;;18.80;91.90;;;;;;5089794;28;20028;-67
2021/07/14 12:08:13;;;;;;;2.47;1.33;;;18.90;91.60;;;;;;5065428;28;20453;-68
2021/07/14 12:10:55;;;;;;;1.63;1.10;;;19.00;91.40;;;;;;5066083;28;20009;-67
2021/07/14 12:13:24;;;;;;;1.58;1.08;;;19.20;91.60;;;;;;5090766;28;20020;-68
2021/07/14 12:15:50;;;;;;;1.00;1.00;;;19.40;91.50;;;;;;5074055;28;20028;-70
2021/07/14 12:18:15;;;;;;;2.80;1.73;;;19.50;91.30;;;;;;5069685;28;20480;-72
2021/07/14 12:20:49;;;;;;;2.45;1.20;;;19.60;90.80;;;;;;5062711;28;20021;-67
2021/07/14 12:23:15;;;;;;;1.80;1.70;;;19.50;90.70;;;;;;5070407;28;20028;-68
2021/07/14 12:25:41;;;;;;;1.50;1.38;;;19.50;90.90;;;;;;5068633;28;20020;-67
2021/07/14 12:28:11;;;;;;;1.05;0.95;;;19.50;90.90;;;;;;5070549;28;20506;-68
2021/07/14 12:30:41;;;;;;;1.30;1.20;;;19.50;90.70;;;;;;5073586;28;20051;-68
2021/07/14 12:33:07;;;;;;;1.23;1.10;;;19.50;90.80;;;;;;5090666;28;20022;-69
2021/07/14 12:35:42;;;;;;;1.67;1.00;;;19.40;90.80;;;;;;5080096;28;20146;-67
2021/07/14 12:38:14;;;;;;;0.98;0.98;;;19.40;90.60;;;;;;5055953;28;20025;-68
2021/07/14 12:40:41;;;;;;;2.67;1.20;;;19.30;90.30;;;;;;5056454;28;20485;-67
2021/07/14 12:43:12;;;;;;;1.08;1.08;;;19.20;90.40;;;;;;5074370;28;20035;-68
2021/07/14 12:45:40;;;;;;;1.13;1.10;;;19.10;90.60;;;;;;5073413;28;20032;-71
2021/07/14 12:48:12;;;;;;;1.88;1.00;;;19.10;90.70;;;;;;5056047;28;20039;-72
2021/07/14 12:50:40;;;;;;;1.55;1.23;;;19.10;90.70;;;;;;5056299;28;20021;-68
2021/07/14 12:53:06;;;;;;;3.40;1.52;;;19.10;90.60;;;;;;5074352;28;20025;-67
2021/07/14 12:55:37;;;;;;;1.60;1.40;;;19.20;90.70;;;;;;5064277;28;20017;-67
2021/07/14 12:58:04;;;;;;;3.20;1.30;;;19.20;90.70;;;;;;5053964;28;20025;-69
2021/07/14 13:00:30;;;;;;;1.20;1.05;;;19.30;90.90;;;;;;5063709;28;20035;-68
2021/07/14 13:02:59;;;;;;;1.08;1.08;;;19.30;90.70;;;;;;5094163;28;20054;-68